Terminal Aerodrome Forecast
Issued by NWS

Home | Current Version | Previous Version | Text Only | Print | Product List | Glossary On
Versions: 1 2 3 4 5 6 7 8 9 10 11 12
000
FTUS42 TJSJ 281100
TAFIST
TAF
TIST 281130Z 2812/0112 08010KT P6SM VCSH SCT025 OVC070
     FM281430 10017G27KT P6SM VCSH FEW025 SCT035
     FM010000 09011KT P6SM VCSH FEW030
      AMD NOT SKED=

USA.gov is the U.S. government's official web portal to all federal, state and local government web resources and services.